LOG708 LSGG-EGKK
Flight info
| Callsign | LOG708 |
|---|---|
| Flight time | 1h 5m |
| Altitude | FL340 |
| Route | DIPIR1A/22 DIPI1A DIPIR T37 IBABA TUTAX OBURO OKRIX CLM KOPOR KESAX KUNAV KUNA1G |
| Aircraft | B752/M-SDE3FHIM3RW/LB1 |
Departure
| Time | 2026-05-04 13:37 |
|---|---|
| Airport | Geneva International Airport (LSGG) |
Arrival
| Time | 2026-05-04 14:42 |
|---|---|
| Airport | London Gatwick Airport (EGKK) |
| Time | Latitude | Longitude | Altitude | Speed | Heading |
|---|---|---|---|---|---|
| 2026-05-04 13:17 | 46.23156 | 6.10743 | 1420 ft | 0 kts | 135° |
| 2026-05-04 13:22 | 46.23155 | 6.10743 | 1420 ft | 0 kts | 135° |
| 2026-05-04 13:25 | 46.23175 | 6.10716 | 1420 ft | 3 kts | 143° |
| 2026-05-04 13:25 | 46.23190 | 6.10700 | 1420 ft | 1 kts | 143° |
| 2026-05-04 13:26 | 46.23191 | 6.10701 | 1420 ft | 3 kts | 37° |
| 2026-05-04 13:26 | 46.23232 | 6.10747 | 1420 ft | 10 kts | 39° |
| 2026-05-04 13:27 | 46.23294 | 6.10806 | 1420 ft | 11 kts | 18° |
| 2026-05-04 13:27 | 46.23347 | 6.10786 | 1420 ft | 9 kts | 328° |
| 2026-05-04 13:27 | 46.23411 | 6.10713 | 1420 ft | 7 kts | 331° |
| 2026-05-04 13:27 | 46.23413 | 6.10712 | 1420 ft | 0 kts | 338° |
| 2026-05-04 13:28 | 46.23456 | 6.10725 | 1420 ft | 10 kts | 31° |
| 2026-05-04 13:28 | 46.23521 | 6.10806 | 1420 ft | 12 kts | 45° |
| 2026-05-04 13:28 | 46.23574 | 6.10885 | 1420 ft | 13 kts | 46° |
| 2026-05-04 13:28 | 46.23668 | 6.11023 | 1420 ft | 25 kts | 45° |
| 2026-05-04 13:29 | 46.23794 | 6.11205 | 1420 ft | 25 kts | 45° |
| 2026-05-04 13:29 | 46.23921 | 6.11390 | 1420 ft | 26 kts | 45° |
| 2026-05-04 13:29 | 46.24053 | 6.11583 | 1420 ft | 28 kts | 45° |
| 2026-05-04 13:29 | 46.24193 | 6.11790 | 1420 ft | 28 kts | 46° |
| 2026-05-04 13:30 | 46.24325 | 6.11984 | 1420 ft | 29 kts | 45° |
| 2026-05-04 13:30 | 46.24443 | 6.12157 | 1420 ft | 19 kts | 45° |
| 2026-05-04 13:30 | 46.24521 | 6.12270 | 1420 ft | 17 kts | 45° |
| 2026-05-04 13:30 | 46.24604 | 6.12392 | 1420 ft | 8 kts | 43° |
| 2026-05-04 13:31 | 46.24703 | 6.12538 | 1420 ft | 23 kts | 47° |
| 2026-05-04 13:31 | 46.24780 | 6.12645 | 1420 ft | 8 kts | 33° |
| 2026-05-04 13:31 | 46.24786 | 6.12651 | 1420 ft | 0 kts | 32° |
| 2026-05-04 13:32 | 46.24801 | 6.12662 | 1420 ft | 9 kts | 27° |
| 2026-05-04 13:32 | 46.24838 | 6.12683 | 1420 ft | 2 kts | 20° |
| 2026-05-04 13:32 | 46.24839 | 6.12684 | 1420 ft | 0 kts | 20° |
| 2026-05-04 13:33 | 46.24859 | 6.12694 | 1420 ft | 7 kts | 20° |
| 2026-05-04 13:33 | 46.24913 | 6.12720 | 1420 ft | 5 kts | 15° |
| 2026-05-04 13:33 | 46.24925 | 6.12725 | 1420 ft | 0 kts | 15° |
| 2026-05-04 13:34 | 46.24962 | 6.12729 | 1420 ft | 11 kts | 342° |
| 2026-05-04 13:35 | 46.24988 | 6.12635 | 1420 ft | 12 kts | 241° |
| 2026-05-04 13:35 | 46.24966 | 6.12600 | 1420 ft | 0 kts | 225° |
| 2026-05-04 13:36 | 46.24825 | 6.12388 | 1420 ft | 71 kts | 226° |
| 2026-05-04 13:36 | 46.24266 | 6.11567 | 1421 ft | 155 kts | 226° |
| 2026-05-04 13:36 | 46.23422 | 6.10305 | 1795 ft | 191 kts | 226° |
| 2026-05-04 13:37 | 46.22434 | 6.08838 | 2501 ft | 218 kts | 226° |
| 2026-05-04 13:37 | 46.21286 | 6.07158 | 3217 ft | 253 kts | 226° |
| 2026-05-04 13:37 | 46.20045 | 6.05348 | 3904 ft | 247 kts | 225° |
| 2026-05-04 13:37 | 46.19247 | 6.04187 | 4368 ft | 247 kts | 225° |
| 2026-05-04 13:38 | 46.17684 | 6.01675 | 5263 ft | 258 kts | 235° |
| 2026-05-04 13:38 | 46.17109 | 5.99240 | 5959 ft | 263 kts | 260° |
| 2026-05-04 13:38 | 46.17271 | 5.96573 | 6676 ft | 274 kts | 283° |
| 2026-05-04 13:38 | 46.18168 | 5.94144 | 7381 ft | 279 kts | 307° |
| 2026-05-04 13:39 | 46.19668 | 5.92382 | 8085 ft | 283 kts | 329° |
| 2026-05-04 13:39 | 46.21530 | 5.91446 | 8830 ft | 287 kts | 346° |
| 2026-05-04 13:39 | 46.23492 | 5.90871 | 9531 ft | 289 kts | 351° |
| 2026-05-04 13:39 | 46.25465 | 5.90315 | 10221 ft | 293 kts | 349° |
| 2026-05-04 13:40 | 46.27558 | 5.89585 | 10544 ft | 327 kts | 345° |
| 2026-05-04 13:40 | 46.29826 | 5.88546 | 10941 ft | 356 kts | 339° |
| 2026-05-04 13:40 | 46.32175 | 5.87205 | 11588 ft | 370 kts | 334° |
| 2026-05-04 13:40 | 46.34526 | 5.85642 | 12217 ft | 374 kts | 331° |
| 2026-05-04 13:41 | 46.36839 | 5.83917 | 12844 ft | 377 kts | 328° |
| 2026-05-04 13:41 | 46.39146 | 5.82072 | 13474 ft | 382 kts | 327° |
| 2026-05-04 13:41 | 46.41467 | 5.80169 | 14099 ft | 386 kts | 327° |
| 2026-05-04 13:42 | 46.46153 | 5.76278 | 15351 ft | 392 kts | 327° |
| 2026-05-04 13:42 | 46.48526 | 5.74309 | 15977 ft | 395 kts | 327° |
| 2026-05-04 13:42 | 46.50918 | 5.72332 | 16600 ft | 398 kts | 327° |
| 2026-05-04 13:42 | 46.53345 | 5.70339 | 17128 ft | 404 kts | 327° |
| 2026-05-04 13:43 | 46.55805 | 5.68331 | 17631 ft | 409 kts | 327° |
| 2026-05-04 13:43 | 46.58285 | 5.66314 | 18131 ft | 411 kts | 327° |
| 2026-05-04 13:43 | 46.60786 | 5.64285 | 18632 ft | 413 kts | 327° |
| 2026-05-04 13:43 | 46.63294 | 5.62252 | 19110 ft | 415 kts | 327° |
| 2026-05-04 13:44 | 46.65831 | 5.60198 | 19503 ft | 420 kts | 327° |
| 2026-05-04 13:44 | 46.68392 | 5.58127 | 19880 ft | 424 kts | 327° |
| 2026-05-04 13:44 | 46.70972 | 5.56041 | 20256 ft | 426 kts | 327° |
| 2026-05-04 13:44 | 46.73559 | 5.53934 | 20617 ft | 428 kts | 327° |
| 2026-05-04 13:45 | 46.76155 | 5.51799 | 20928 ft | 431 kts | 327° |
| 2026-05-04 13:45 | 46.78766 | 5.49634 | 21230 ft | 433 kts | 327° |
| 2026-05-04 13:45 | 46.81382 | 5.47448 | 21531 ft | 435 kts | 327° |
| 2026-05-04 13:45 | 46.84000 | 5.45246 | 21830 ft | 436 kts | 326° |
| 2026-05-04 13:46 | 46.86430 | 5.42667 | 22113 ft | 431 kts | 315° |
| 2026-05-04 13:46 | 46.88411 | 5.39416 | 22417 ft | 428 kts | 303° |
| 2026-05-04 13:46 | 46.89965 | 5.35733 | 22726 ft | 426 kts | 294° |
| 2026-05-04 13:46 | 46.91149 | 5.31779 | 23037 ft | 426 kts | 287° |
| 2026-05-04 13:47 | 46.92214 | 5.27725 | 23338 ft | 432 kts | 290° |
| 2026-05-04 13:47 | 46.93742 | 5.23908 | 23641 ft | 439 kts | 299° |
| 2026-05-04 13:47 | 46.95612 | 5.20351 | 23947 ft | 445 kts | 305° |
| 2026-05-04 13:47 | 46.97690 | 5.16987 | 24251 ft | 448 kts | 309° |
| 2026-05-04 13:48 | 46.99896 | 5.13757 | 24553 ft | 451 kts | 311° |
| 2026-05-04 13:48 | 47.02184 | 5.10607 | 24854 ft | 453 kts | 313° |
| 2026-05-04 13:48 | 47.04521 | 5.07504 | 25154 ft | 455 kts | 314° |
| 2026-05-04 13:48 | 47.06886 | 5.04426 | 25454 ft | 457 kts | 314° |
| 2026-05-04 13:49 | 47.09271 | 5.01347 | 25754 ft | 459 kts | 314° |
| 2026-05-04 13:49 | 47.11670 | 4.98256 | 26054 ft | 461 kts | 314° |
| 2026-05-04 13:49 | 47.14080 | 4.95145 | 26354 ft | 464 kts | 314° |
| 2026-05-04 13:49 | 47.16503 | 4.92004 | 26655 ft | 466 kts | 314° |
| 2026-05-04 13:50 | 47.18931 | 4.88841 | 26955 ft | 469 kts | 314° |
| 2026-05-04 13:50 | 47.21365 | 4.85654 | 27255 ft | 471 kts | 314° |
| 2026-05-04 13:50 | 47.23809 | 4.82436 | 27555 ft | 474 kts | 313° |
| 2026-05-04 13:50 | 47.26258 | 4.79196 | 27856 ft | 476 kts | 313° |
| 2026-05-04 13:51 | 47.28717 | 4.75929 | 28156 ft | 478 kts | 313° |
| 2026-05-04 13:51 | 47.31184 | 4.72638 | 28456 ft | 480 kts | 313° |
| 2026-05-04 13:51 | 47.33658 | 4.69326 | 28756 ft | 482 kts | 313° |
| 2026-05-04 13:51 | 47.36137 | 4.65998 | 29056 ft | 484 kts | 313° |
| 2026-05-04 13:52 | 47.41105 | 4.59303 | 29656 ft | 486 kts | 312° |
| 2026-05-04 13:52 | 47.43594 | 4.55937 | 29955 ft | 487 kts | 312° |
| 2026-05-04 13:52 | 47.46087 | 4.52560 | 30255 ft | 487 kts | 312° |
| 2026-05-04 13:53 | 47.48576 | 4.49181 | 30555 ft | 487 kts | 312° |
| 2026-05-04 13:53 | 47.51063 | 4.45798 | 30854 ft | 487 kts | 312° |
| 2026-05-04 13:53 | 47.53550 | 4.42409 | 31154 ft | 487 kts | 312° |
| 2026-05-04 13:54 | 47.58509 | 4.35633 | 31753 ft | 485 kts | 312° |
| 2026-05-04 13:54 | 47.60982 | 4.32246 | 32052 ft | 484 kts | 312° |
| 2026-05-04 13:54 | 47.65630 | 4.25149 | 32649 ft | 477 kts | 305° |
| 2026-05-04 13:55 | 47.67693 | 4.21338 | 32949 ft | 473 kts | 302° |
| 2026-05-04 13:55 | 47.71504 | 4.13485 | 33551 ft | 467 kts | 299° |
| 2026-05-04 13:55 | 47.73320 | 4.09501 | 33799 ft | 467 kts | 298° |
| 2026-05-04 13:56 | 47.75110 | 4.05483 | 33923 ft | 469 kts | 298° |
| 2026-05-04 13:56 | 47.76897 | 4.01418 | 33970 ft | 473 kts | 297° |
| 2026-05-04 13:57 | 47.82320 | 3.89014 | 33978 ft | 482 kts | 297° |
| 2026-05-04 13:58 | 47.89157 | 3.73511 | 33975 ft | 487 kts | 298° |
| 2026-05-04 13:58 | 47.94778 | 3.60917 | 33968 ft | 489 kts | 300° |
| 2026-05-04 13:59 | 47.97081 | 3.57134 | 33963 ft | 498 kts | 312° |
| 2026-05-04 13:59 | 47.99851 | 3.54002 | 33971 ft | 504 kts | 321° |
| 2026-05-04 14:00 | 48.09295 | 3.46932 | 33970 ft | 510 kts | 334° |
| 2026-05-04 14:00 | 48.19240 | 3.41212 | 33968 ft | 512 kts | 336° |
| 2026-05-04 14:01 | 48.25898 | 3.37503 | 33968 ft | 512 kts | 336° |
| 2026-05-04 14:02 | 48.35849 | 3.31800 | 33968 ft | 511 kts | 335° |
| 2026-05-04 14:02 | 48.42437 | 3.27886 | 33967 ft | 510 kts | 335° |
| 2026-05-04 14:03 | 48.49004 | 3.23889 | 33968 ft | 510 kts | 334° |
| 2026-05-04 14:03 | 48.55546 | 3.19832 | 33967 ft | 509 kts | 334° |
| 2026-05-04 14:04 | 48.65326 | 3.13665 | 33968 ft | 509 kts | 334° |
| 2026-05-04 14:04 | 48.71838 | 3.09515 | 33968 ft | 509 kts | 333° |
| 2026-05-04 14:05 | 48.81589 | 3.03233 | 33967 ft | 508 kts | 333° |
| 2026-05-04 14:06 | 48.87900 | 2.98533 | 33968 ft | 505 kts | 328° |
| 2026-05-04 14:06 | 48.94037 | 2.93420 | 33968 ft | 504 kts | 327° |
| 2026-05-04 14:07 | 49.00099 | 2.88119 | 33968 ft | 503 kts | 326° |
| 2026-05-04 14:07 | 49.06132 | 2.82743 | 33967 ft | 503 kts | 326° |
| 2026-05-04 14:08 | 49.12149 | 2.77351 | 33968 ft | 503 kts | 326° |
| 2026-05-04 14:08 | 49.18168 | 2.71955 | 33968 ft | 502 kts | 326° |
| 2026-05-04 14:09 | 49.27195 | 2.63873 | 33967 ft | 502 kts | 326° |
| 2026-05-04 14:10 | 49.36214 | 2.55802 | 33968 ft | 501 kts | 326° |
| 2026-05-04 14:10 | 49.42226 | 2.50415 | 33985 ft | 501 kts | 326° |
| 2026-05-04 14:11 | 49.48231 | 2.45013 | 33970 ft | 500 kts | 325° |
| 2026-05-04 14:11 | 49.56625 | 2.35722 | 33969 ft | 495 kts | 317° |
| 2026-05-04 14:12 | 49.61884 | 2.28941 | 33968 ft | 493 kts | 315° |
| 2026-05-04 14:13 | 49.69610 | 2.18504 | 33969 ft | 492 kts | 314° |
| 2026-05-04 14:13 | 49.74730 | 2.11503 | 33969 ft | 492 kts | 314° |
| 2026-05-04 14:14 | 49.79846 | 2.04509 | 33970 ft | 492 kts | 314° |
| 2026-05-04 14:14 | 49.87533 | 1.94035 | 33975 ft | 492 kts | 314° |
| 2026-05-04 14:15 | 49.92672 | 1.87045 | 33732 ft | 497 kts | 314° |
| 2026-05-04 14:15 | 49.97910 | 1.79908 | 32644 ft | 497 kts | 315° |
| 2026-05-04 14:16 | 50.02953 | 1.73064 | 31541 ft | 472 kts | 315° |
| 2026-05-04 14:16 | 50.05405 | 1.69734 | 30991 ft | 466 kts | 315° |
| 2026-05-04 14:17 | 50.10228 | 1.63198 | 29891 ft | 455 kts | 315° |
| 2026-05-04 14:17 | 50.12596 | 1.59990 | 29342 ft | 451 kts | 315° |
| 2026-05-04 14:17 | 50.17267 | 1.53651 | 28242 ft | 442 kts | 315° |
| 2026-05-04 14:18 | 50.19573 | 1.50515 | 27687 ft | 438 kts | 315° |
| 2026-05-04 14:18 | 50.24110 | 1.44322 | 26584 ft | 430 kts | 315° |
| 2026-05-04 14:19 | 50.28560 | 1.38227 | 25512 ft | 423 kts | 315° |
| 2026-05-04 14:19 | 50.30754 | 1.35218 | 24964 ft | 419 kts | 315° |
| 2026-05-04 14:19 | 50.32936 | 1.32223 | 24414 ft | 416 kts | 315° |
| 2026-05-04 14:19 | 50.35097 | 1.29253 | 23864 ft | 413 kts | 315° |
| 2026-05-04 14:20 | 50.37236 | 1.26310 | 23316 ft | 409 kts | 315° |
| 2026-05-04 14:20 | 50.39360 | 1.23381 | 22765 ft | 405 kts | 315° |
| 2026-05-04 14:20 | 50.41458 | 1.20484 | 22216 ft | 401 kts | 315° |
| 2026-05-04 14:21 | 50.45583 | 1.14775 | 21117 ft | 392 kts | 316° |
| 2026-05-04 14:21 | 50.47611 | 1.11962 | 20568 ft | 388 kts | 316° |
| 2026-05-04 14:21 | 50.49596 | 1.09145 | 20018 ft | 383 kts | 315° |
| 2026-05-04 14:21 | 50.51504 | 1.06275 | 19469 ft | 379 kts | 314° |
| 2026-05-04 14:22 | 50.53355 | 1.03367 | 18919 ft | 374 kts | 313° |
| 2026-05-04 14:22 | 50.55153 | 1.00450 | 18369 ft | 370 kts | 313° |
| 2026-05-04 14:22 | 50.56911 | 0.97537 | 17820 ft | 366 kts | 312° |
| 2026-05-04 14:22 | 50.58637 | 0.94636 | 17271 ft | 362 kts | 312° |
| 2026-05-04 14:23 | 50.62022 | 0.88885 | 16171 ft | 356 kts | 311° |
| 2026-05-04 14:23 | 50.63482 | 0.86393 | 15690 ft | 353 kts | 311° |
| 2026-05-04 14:23 | 50.65131 | 0.83557 | 15140 ft | 350 kts | 311° |
| 2026-05-04 14:24 | 50.66733 | 0.80700 | 14591 ft | 347 kts | 310° |
| 2026-05-04 14:24 | 50.68294 | 0.77824 | 14041 ft | 344 kts | 309° |
| 2026-05-04 14:24 | 50.69764 | 0.74877 | 13482 ft | 341 kts | 304° |
| 2026-05-04 14:24 | 50.70965 | 0.71687 | 12942 ft | 338 kts | 298° |
| 2026-05-04 14:25 | 50.72025 | 0.68390 | 12395 ft | 336 kts | 295° |
| 2026-05-04 14:25 | 50.73984 | 0.61796 | 11297 ft | 328 kts | 294° |
| 2026-05-04 14:25 | 50.74912 | 0.58587 | 10745 ft | 315 kts | 294° |
| 2026-05-04 14:26 | 50.75798 | 0.55500 | 10193 ft | 304 kts | 294° |
| 2026-05-04 14:26 | 50.76655 | 0.52495 | 9642 ft | 297 kts | 294° |
| 2026-05-04 14:26 | 50.77491 | 0.49547 | 9094 ft | 293 kts | 294° |
| 2026-05-04 14:26 | 50.78313 | 0.46631 | 8542 ft | 289 kts | 294° |
| 2026-05-04 14:27 | 50.79120 | 0.43755 | 8025 ft | 285 kts | 294° |
| 2026-05-04 14:27 | 50.79916 | 0.40902 | 7523 ft | 282 kts | 294° |
| 2026-05-04 14:27 | 50.80698 | 0.38085 | 7143 ft | 276 kts | 294° |
| 2026-05-04 14:27 | 50.81456 | 0.35344 | 7058 ft | 272 kts | 293° |
| 2026-05-04 14:28 | 50.82209 | 0.32611 | 7032 ft | 272 kts | 293° |
| 2026-05-04 14:28 | 50.82965 | 0.29865 | 7018 ft | 273 kts | 293° |
| 2026-05-04 14:28 | 50.83721 | 0.27118 | 7022 ft | 273 kts | 293° |
| 2026-05-04 14:28 | 50.84477 | 0.24370 | 7025 ft | 274 kts | 293° |
| 2026-05-04 14:29 | 50.85993 | 0.18848 | 7025 ft | 274 kts | 293° |
| 2026-05-04 14:29 | 50.87510 | 0.13320 | 7026 ft | 274 kts | 293° |
| 2026-05-04 14:30 | 50.88015 | 0.11478 | 7026 ft | 274 kts | 293° |
| 2026-05-04 14:30 | 50.89026 | 0.07786 | 7014 ft | 275 kts | 293° |
| 2026-05-04 14:30 | 50.90564 | 0.02160 | 6003 ft | 271 kts | 293° |
| 2026-05-04 14:31 | 50.91289 | -0.00508 | 5499 ft | 258 kts | 293° |
| 2026-05-04 14:31 | 50.92660 | -0.05542 | 4494 ft | 243 kts | 294° |
| 2026-05-04 14:32 | 50.94545 | -0.09862 | 3501 ft | 238 kts | 311° |
| 2026-05-04 14:32 | 50.95634 | -0.11808 | 3091 ft | 232 kts | 311° |
| 2026-05-04 14:32 | 50.96541 | -0.13849 | 3008 ft | 226 kts | 304° |
| 2026-05-04 14:32 | 50.97296 | -0.16029 | 2997 ft | 227 kts | 299° |
| 2026-05-04 14:33 | 50.98017 | -0.18256 | 2997 ft | 228 kts | 298° |
| 2026-05-04 14:33 | 50.98732 | -0.20473 | 2985 ft | 223 kts | 298° |
| 2026-05-04 14:33 | 50.99408 | -0.22639 | 2976 ft | 217 kts | 297° |
| 2026-05-04 14:33 | 50.99992 | -0.24816 | 2984 ft | 214 kts | 294° |
| 2026-05-04 14:34 | 51.00549 | -0.26996 | 2984 ft | 212 kts | 293° |
| 2026-05-04 14:34 | 51.01098 | -0.29154 | 2986 ft | 211 kts | 293° |
| 2026-05-04 14:34 | 51.01648 | -0.31310 | 2987 ft | 211 kts | 293° |
| 2026-05-04 14:34 | 51.02196 | -0.33457 | 2987 ft | 210 kts | 293° |
| 2026-05-04 14:35 | 51.02744 | -0.35605 | 2987 ft | 210 kts | 293° |
| 2026-05-04 14:35 | 51.03291 | -0.37753 | 2991 ft | 209 kts | 293° |
| 2026-05-04 14:35 | 51.03824 | -0.39849 | 3004 ft | 203 kts | 293° |
| 2026-05-04 14:35 | 51.04351 | -0.41923 | 2993 ft | 203 kts | 293° |
| 2026-05-04 14:36 | 51.04874 | -0.43986 | 2988 ft | 201 kts | 293° |
| 2026-05-04 14:36 | 51.05394 | -0.46036 | 2986 ft | 199 kts | 293° |
| 2026-05-04 14:36 | 51.05903 | -0.48053 | 2987 ft | 195 kts | 293° |
| 2026-05-04 14:36 | 51.06401 | -0.50045 | 2987 ft | 194 kts | 293° |
| 2026-05-04 14:37 | 51.06991 | -0.51943 | 2930 ft | 193 kts | 303° |
| 2026-05-04 14:37 | 51.08091 | -0.53100 | 2968 ft | 196 kts | 335° |
| 2026-05-04 14:37 | 51.09495 | -0.53178 | 3008 ft | 210 kts | 5° |
| 2026-05-04 14:37 | 51.10745 | -0.52135 | 2985 ft | 201 kts | 35° |
| 2026-05-04 14:38 | 51.11430 | -0.50261 | 2988 ft | 199 kts | 66° |
| 2026-05-04 14:38 | 51.11397 | -0.48080 | 3020 ft | 199 kts | 95° |
| 2026-05-04 14:38 | 51.10999 | -0.45997 | 3024 ft | 193 kts | 104° |
| 2026-05-04 14:38 | 51.10959 | -0.43961 | 2964 ft | 180 kts | 86° |
| 2026-05-04 14:39 | 51.11310 | -0.42058 | 2910 ft | 183 kts | 73° |
| 2026-05-04 14:39 | 51.11732 | -0.40180 | 2617 ft | 177 kts | 70° |
| 2026-05-04 14:39 | 51.12061 | -0.38373 | 2375 ft | 164 kts | 73° |
| 2026-05-04 14:40 | 51.12593 | -0.34951 | 2016 ft | 160 kts | 75° |
| 2026-05-04 14:40 | 51.12850 | -0.33238 | 1792 ft | 159 kts | 76° |
| 2026-05-04 14:40 | 51.13085 | -0.31541 | 1589 ft | 155 kts | 77° |
| 2026-05-04 14:40 | 51.13311 | -0.29913 | 1374 ft | 148 kts | 76° |
| 2026-05-04 14:41 | 51.13525 | -0.28347 | 1190 ft | 142 kts | 76° |
| 2026-05-04 14:41 | 51.13734 | -0.26825 | 993 ft | 140 kts | 76° |
| 2026-05-04 14:41 | 51.14149 | -0.23837 | 629 ft | 137 kts | 77° |
| 2026-05-04 14:42 | 51.14546 | -0.20884 | 246 ft | 135 kts | 78° |
| 2026-05-04 14:42 | 51.14711 | -0.19701 | 205 ft | 72 kts | 77° |
| 2026-05-04 14:42 | 51.14798 | -0.19096 | 205 ft | 44 kts | 77° |
| 2026-05-04 14:43 | 51.14864 | -0.18680 | 205 ft | 31 kts | 64° |
| 2026-05-04 14:43 | 51.14960 | -0.18463 | 205 ft | 19 kts | 52° |
| 2026-05-04 14:43 | 51.15011 | -0.18365 | 205 ft | 2 kts | 49° |
| 2026-05-04 14:43 | 51.15013 | -0.18362 | 205 ft | 0 kts | 49° |
| 2026-05-04 14:44 | 51.15015 | -0.18357 | 205 ft | 0 kts | 49° |
| 2026-05-04 14:44 | 51.15021 | -0.18347 | 205 ft | 6 kts | 50° |
| 2026-05-04 14:44 | 51.15055 | -0.18281 | 205 ft | 14 kts | 50° |
| 2026-05-04 14:45 | 51.15111 | -0.18102 | 205 ft | 23 kts | 74° |
| 2026-05-04 14:45 | 51.15153 | -0.17844 | 205 ft | 21 kts | 76° |
| 2026-05-04 14:45 | 51.15183 | -0.17636 | 205 ft | 20 kts | 78° |
| 2026-05-04 14:45 | 51.15214 | -0.17415 | 205 ft | 21 kts | 72° |
| 2026-05-04 14:46 | 51.15305 | -0.17364 | 205 ft | 16 kts | 351° |
| 2026-05-04 14:46 | 51.15418 | -0.17398 | 205 ft | 16 kts | 349° |
| 2026-05-04 14:46 | 51.15542 | -0.17442 | 205 ft | 22 kts | 347° |
| 2026-05-04 14:46 | 51.15681 | -0.17493 | 205 ft | 16 kts | 347° |
| 2026-05-04 14:47 | 51.15746 | -0.17495 | 205 ft | 3 kts | 40° |
| 2026-05-04 14:47 | 51.15764 | -0.17411 | 205 ft | 11 kts | 77° |
| 2026-05-04 14:47 | 51.15781 | -0.17298 | 205 ft | 7 kts | 76° |
| 2026-05-04 14:47 | 51.15795 | -0.17238 | 205 ft | 9 kts | 53° |
| 2026-05-04 14:48 | 51.15835 | -0.17225 | 205 ft | 8 kts | 351° |
| 2026-05-04 14:48 | 51.15873 | -0.17236 | 205 ft | 0 kts | 348° |